Time;durP1;ratioP1;P1;durP2;ratioP2;P2;SDS_P1;SDS_P2;PMS_P1;PMS_P2;Temp;Humidity;BMP_temperature;BMP_pressure;BME280_temperature;BME280_humidity;BME280_pressure;Samples;Min_cycle;Max_cycle;Signal;HPM_P1;HPM_P2
2022/10/12 00:00:49;;;;;;;20.50;17.20;;;15.60;99.30;;;;;;5003673;28;20489;-63
2022/10/12 00:03:16;;;;;;;21.53;16.53;;;15.60;99.40;;;;;;5014857;28;20446;-63
2022/10/12 00:05:44;;;;;;;26.37;18.37;;;15.60;99.30;;;;;;4976840;28;20655;-68
2022/10/12 00:08:11;;;;;;;22.17;18.47;;;15.60;99.30;;;;;;5006398;28;20438;-63
2022/10/12 00:10:41;;;;;;;21.67;18.17;;;15.60;99.20;;;;;;5013563;28;20551;-63
2022/10/12 00:13:08;;;;;;;22.07;18.23;;;15.60;99.30;;;;;;5013239;28;20444;-63
2022/10/12 00:15:38;;;;;;;23.70;17.70;;;15.60;99.30;;;;;;5012466;28;20441;-63
2022/10/12 00:18:05;;;;;;;24.10;17.03;;;15.60;99.30;;;;;;4989559;28;20443;-64
2022/10/12 00:20:32;;;;;;;26.47;18.47;;;15.60;99.40;;;;;;4993831;28;20610;-64
2022/10/12 00:22:59;;;;;;;25.07;18.77;;;15.60;99.40;;;;;;4990887;28;21007;-62
2022/10/12 00:25:26;;;;;;;19.20;16.77;;;15.60;99.40;;;;;;4994996;28;20442;-63
2022/10/12 00:27:53;;;;;;;22.90;17.63;;;15.60;99.50;;;;;;5011692;28;20781;-63
2022/10/12 00:30:20;;;;;;;27.37;18.27;;;15.50;99.60;;;;;;5014536;28;20537;-62
2022/10/12 00:32:49;;;;;;;26.27;19.63;;;15.50;99.80;;;;;;4995078;28;20933;-63
2022/10/12 00:35:16;;;;;;;22.70;18.67;;;15.50;99.90;;;;;;4994394;28;20928;-63
2022/10/12 00:37:42;;;;;;;24.23;19.40;;;15.50;99.80;;;;;;5008763;28;20520;-64
2022/10/12 00:40:11;;;;;;;28.47;18.93;;;15.50;99.90;;;;;;5014217;28;20540;-62
2022/10/12 00:42:38;;;;;;;24.27;18.00;;;15.50;99.90;;;;;;4998156;28;20811;-63
2022/10/12 00:45:05;;;;;;;22.87;18.50;;;15.50;99.90;;;;;;4994467;28;20445;-62
2022/10/12 00:47:35;;;;;;;26.93;19.73;;;15.50;99.90;;;;;;5006861;28;20505;-62
2022/10/12 00:50:10;;;;;;;24.27;19.60;;;15.40;99.90;;;;;;5013771;28;20454;-63
2022/10/12 00:52:43;;;;;;;22.47;17.77;;;15.40;99.90;;;;;;4999172;28;20911;-63
2022/10/12 00:55:15;;;;;;;25.23;18.90;;;15.40;99.90;;;;;;4994560;28;20434;-62
2022/10/12 00:57:42;;;;;;;25.20;17.70;;;15.40;99.90;;;;;;5005433;28;20445;-63
2022/10/12 01:00:10;;;;;;;26.87;17.57;;;15.50;99.90;;;;;;5013760;28;20489;-63
2022/10/12 01:02:40;;;;;;;27.80;19.00;;;15.50;99.90;;;;;;4999500;28;20458;-63
2022/10/12 01:05:10;;;;;;;24.23;17.97;;;15.50;99.90;;;;;;4994040;28;20920;-63
2022/10/12 01:07:37;;;;;;;24.00;17.37;;;15.50;99.90;;;;;;5005198;28;20565;-63
2022/10/12 01:10:05;;;;;;;24.13;19.27;;;15.50;99.90;;;;;;5013803;28;20444;-63
2022/10/12 01:12:33;;;;;;;27.77;18.57;;;15.40;99.90;;;;;;5001175;28;20531;-63
2022/10/12 01:15:00;;;;;;;25.03;17.67;;;15.50;99.90;;;;;;4993972;28;20444;-63
2022/10/12 01:17:40;;;;;;;23.87;18.93;;;15.50;99.90;;;;;;5002308;28;20446;-63
2022/10/12 01:20:36;;;;;;;23.20;19.37;;;15.50;99.90;;;;;;5009898;28;20543;-63
2022/10/12 01:23:42;;;;;;;25.93;18.20;;;15.50;99.90;;;;;;4997641;28;20515;-63
2022/10/12 01:26:27;;;;;;;25.23;19.57;;;15.40;99.90;;;;;;4994074;28;20440;-63
2022/10/12 01:29:05;;;;;;;23.00;19.47;;;15.40;99.90;;;;;;4993538;28;20438;-63
2022/10/12 01:31:38;;;;;;;24.43;19.70;;;15.40;99.90;;;;;;4993156;28;20452;-63
2022/10/12 01:34:13;;;;;;;26.23;20.33;;;15.40;99.90;;;;;;5013009;28;20606;-62
2022/10/12 01:36:44;;;;;;;28.20;20.03;;;15.50;99.90;;;;;;5010917;28;20565;-63
2022/10/12 01:39:18;;;;;;;29.37;20.37;;;15.50;99.90;;;;;;4993604;28;20443;-63
2022/10/12 01:41:49;;;;;;;25.67;20.47;;;15.40;99.90;;;;;;4993565;28;20837;-63
2022/10/12 01:44:21;;;;;;;26.67;19.50;;;15.50;99.90;;;;;;5013054;28;20767;-63
2022/10/12 01:46:50;;;;;;;29.07;20.33;;;15.50;99.90;;;;;;5010481;28;20452;-63
2022/10/12 01:49:22;;;;;;;25.50;18.77;;;15.50;99.90;;;;;;4993589;28;20429;-64
2022/10/12 01:51:59;;;;;;;22.87;18.77;;;15.50;99.90;;;;;;4993297;28;20487;-63
2022/10/12 01:54:34;;;;;;;24.30;20.57;;;15.50;99.90;;;;;;5012477;28;20442;-63
2022/10/12 01:57:06;;;;;;;29.00;20.53;;;15.50;99.90;;;;;;5009069;28;20466;-64
2022/10/12 01:59:46;;;;;;;29.63;21.70;;;15.40;99.90;;;;;;5012918;28;20583;-63
2022/10/12 02:02:19;;;;;;;25.37;20.90;;;15.40;99.90;;;;;;5008767;28;20570;-64
2022/10/12 02:04:51;;;;;;;27.50;21.07;;;15.40;99.90;;;;;;4992564;28;20495;-64
2022/10/12 02:07:23;;;;;;;31.33;20.57;;;15.40;99.90;;;;;;4995463;28;20531;-63
2022/10/12 02:09:56;;;;;;;26.13;18.83;;;15.40;99.90;;;;;;5013056;28;20509;-63
2022/10/12 02:12:25;;;;;;;27.40;19.67;;;15.40;99.90;;;;;;5008331;28;20449;-62
2022/10/12 02:14:56;;;;;;;24.80;18.27;;;15.40;99.90;;;;;;4998702;28;20443;-63
2022/10/12 02:17:24;;;;;;;28.43;22.70;;;15.40;99.90;;;;;;5000256;28;20543;-63
2022/10/12 02:19:56;;;;;;;24.93;19.57;;;15.40;99.90;;;;;;4993187;28;20476;-63
2022/10/12 02:22:25;;;;;;;29.23;20.17;;;15.40;99.90;;;;;;5002031;28;20444;-63
2022/10/12 02:24:55;;;;;;;27.80;19.83;;;15.40;99.90;;;;;;5012497;28;20440;-62
2022/10/12 02:27:24;;;;;;;30.50;21.30;;;15.40;99.90;;;;;;5001766;28;20441;-63
2022/10/12 02:29:51;;;;;;;30.50;21.03;;;15.40;99.90;;;;;;4992368;28;20446;-63
2022/10/12 02:32:22;;;;;;;29.30;20.77;;;15.30;99.90;;;;;;5009344;28;20514;-64
2022/10/12 02:34:55;;;;;;;27.17;20.50;;;15.30;99.90;;;;;;5014830;28;20965;-63
2022/10/12 02:37:31;;;;;;;27.40;21.33;;;15.30;99.90;;;;;;4995698;28;20516;-63
2022/10/12 02:40:06;;;;;;;25.00;19.00;;;15.30;99.90;;;;;;4996723;28;20858;-64
2022/10/12 02:42:39;;;;;;;26.83;19.13;;;15.30;99.90;;;;;;4995331;28;20437;-63
2022/10/12 02:45:09;;;;;;;42.50;23.27;;;15.30;99.90;;;;;;4996867;28;20440;-63
2022/10/12 02:47:37;;;;;;;25.20;19.40;;;15.30;99.90;;;;;;5007926;28;20443;-63
2022/10/12 02:50:09;;;;;;;27.97;21.63;;;15.30;99.90;;;;;;5015742;28;20452;-64
2022/10/12 02:52:36;;;;;;;23.77;18.90;;;15.30;99.90;;;;;;4995203;28;20845;-63
2022/10/12 02:55:04;;;;;;;23.50;19.00;;;15.30;99.90;;;;;;4996032;28;20440;-63
2022/10/12 02:57:31;;;;;;;29.60;19.20;;;15.20;99.90;;;;;;5011506;28;20443;-62
2022/10/12 02:59:58;;;;;;;31.07;21.57;;;15.20;99.90;;;;;;5015478;28;20534;-63
2022/10/12 03:02:25;;;;;;;30.03;20.77;;;15.30;99.90;;;;;;4998272;28;20483;-63
2022/10/12 03:04:52;;;;;;;24.90;19.90;;;15.30;99.90;;;;;;4995883;28;20797;-63
2022/10/12 03:07:21;;;;;;;26.13;19.37;;;15.20;99.90;;;;;;5011399;28;20444;-63
2022/10/12 03:09:48;;;;;;;24.13;18.83;;;15.20;99.90;;;;;;5015265;28;20453;-63
2022/10/12 03:12:15;;;;;;;30.07;21.23;;;15.20;99.90;;;;;;5000137;28;20443;-64
2022/10/12 03:14:42;;;;;;;29.60;20.17;;;15.20;99.90;;;;;;4995725;28;20440;-63
2022/10/12 03:17:09;;;;;;;28.03;20.83;;;15.20;99.90;;;;;;4993718;28;20431;-63
2022/10/12 03:19:38;;;;;;;27.43;19.40;;;15.20;99.90;;;;;;4998955;28;20435;-63
2022/10/12 03:22:06;;;;;;;26.90;20.67;;;15.20;99.90;;;;;;5014443;28;21014;-63
2022/10/12 03:24:34;;;;;;;24.70;19.97;;;15.20;99.90;;;;;;5011262;28;20952;-63
2022/10/12 03:27:01;;;;;;;25.80;18.70;;;15.20;99.90;;;;;;5006002;28;20440;-63
2022/10/12 03:29:28;;;;;;;26.60;20.20;;;15.20;99.90;;;;;;5012571;28;20530;-63
2022/10/12 03:31:55;;;;;;;25.37;17.80;;;15.20;99.90;;;;;;4995439;28;20441;-63
2022/10/12 03:34:23;;;;;;;28.60;20.13;;;15.20;99.90;;;;;;4995667;28;20443;-63
2022/10/12 03:36:50;;;;;;;30.03;19.83;;;15.20;99.90;;;;;;5004596;28;20500;-63
2022/10/12 03:39:17;;;;;;;25.83;20.00;;;15.10;99.90;;;;;;4995230;28;20440;-64
2022/10/12 03:41:45;;;;;;;30.20;19.50;;;15.20;99.90;;;;;;5013587;28;20569;-63
2022/10/12 03:44:12;;;;;;;23.70;19.20;;;15.20;99.90;;;;;;5014783;28;20450;-63
2022/10/12 03:46:40;;;;;;;24.50;18.63;;;15.10;99.90;;;;;;4994643;28;20492;-63
2022/10/12 03:49:07;;;;;;;25.43;19.57;;;15.10;99.90;;;;;;4995324;28;20444;-65
2022/10/12 03:51:34;;;;;;;24.57;19.70;;;15.20;99.90;;;;;;5003670;28;20828;-63
2022/10/12 03:54:01;;;;;;;27.53;18.63;;;15.20;99.90;;;;;;5008612;28;20444;-63
2022/10/12 03:56:28;;;;;;;27.83;18.90;;;15.20;99.90;;;;;;5014519;28;20493;-63
2022/10/12 03:58:57;;;;;;;31.13;21.47;;;15.20;99.90;;;;;;5013411;28;20444;-63
2022/10/12 04:01:24;;;;;;;27.70;20.73;;;15.10;99.90;;;;;;5012599;28;20488;-63
2022/10/12 04:03:51;;;;;;;28.67;20.50;;;15.10;99.90;;;;;;4995074;28;20448;-64
2022/10/12 04:06:18;;;;;;;31.57;20.03;;;15.20;99.90;;;;;;4995032;28;20445;-63
2022/10/12 04:08:46;;;;;;;32.40;19.43;;;15.20;99.90;;;;;;5014481;28;20811;-64
2022/10/12 04:11:13;;;;;;;31.10;20.60;;;15.20;99.90;;;;;;5014796;28;20467;-63
2022/10/12 04:13:40;;;;;;;26.90;19.93;;;15.10;99.90;;;;;;4995428;28;20445;-63
2022/10/12 04:16:10;;;;;;;25.33;19.13;;;15.10;99.90;;;;;;4994921;28;20939;-63
2022/10/12 04:18:37;;;;;;;28.33;18.90;;;15.10;99.90;;;;;;5011385;28;20882;-63
2022/10/12 04:21:09;;;;;;;23.93;18.37;;;15.10;99.90;;;;;;5014347;28;20447;-64
2022/10/12 04:23:36;;;;;;;25.87;19.17;;;15.10;99.90;;;;;;4996956;28;20479;-63
2022/10/12 04:26:04;;;;;;;30.33;19.73;;;15.10;99.90;;;;;;5004283;28;20485;-65
2022/10/12 04:28:31;;;;;;;27.43;19.50;;;15.10;99.90;;;;;;5014253;28;20443;-65
2022/10/12 04:30:58;;;;;;;30.73;21.03;;;15.10;99.90;;;;;;5005792;28;20475;-65
2022/10/12 04:33:27;;;;;;;30.40;19.40;;;15.10;99.90;;;;;;4995532;28;20440;-66
2022/10/12 04:35:54;;;;;;;31.83;19.47;;;15.10;99.90;;;;;;5010623;28;20450;-67
2022/10/12 04:38:21;;;;;;;26.10;19.67;;;15.10;99.90;;;;;;5013986;28;20961;-65
2022/10/12 04:40:49;;;;;;;28.40;18.80;;;15.10;99.90;;;;;;4998082;28;20538;-65
2022/10/12 04:43:16;;;;;;;26.60;19.30;;;15.10;99.90;;;;;;5002451;28;20439;-66
2022/10/12 04:45:44;;;;;;;26.93;19.20;;;15.10;99.90;;;;;;5013948;28;20443;-66
2022/10/12 04:48:11;;;;;;;36.40;20.37;;;15.10;99.90;;;;;;5006569;28;20448;-65
2022/10/12 04:50:39;;;;;;;26.63;19.67;;;15.10;99.90;;;;;;5000083;28;20806;-65
2022/10/12 04:53:06;;;;;;;22.67;17.97;;;15.10;99.90;;;;;;5013685;28;20844;-65
2022/10/12 04:55:33;;;;;;;25.93;17.63;;;15.00;99.90;;;;;;5001293;28;20536;-65
2022/10/12 04:58:00;;;;;;;23.00;17.10;;;15.00;99.90;;;;;;4993967;28;20531;-63
2022/10/12 05:00:28;;;;;;;23.90;18.30;;;15.00;99.90;;;;;;4994390;28;20815;-63
2022/10/12 05:02:55;;;;;;;21.77;16.80;;;15.10;99.90;;;;;;4993994;28;20451;-63
2022/10/12 05:05:22;;;;;;;27.87;19.30;;;15.00;99.90;;;;;;5003086;28;20956;-63
2022/10/12 05:07:50;;;;;;;25.50;18.33;;;15.00;99.90;;;;;;5013382;28;20526;-63
2022/10/12 05:10:18;;;;;;;23.40;17.00;;;15.00;99.90;;;;;;5004549;28;20437;-63
2022/10/12 05:12:45;;;;;;;24.77;18.00;;;15.00;99.90;;;;;;4994037;28;20483;-63
2022/10/12 05:15:13;;;;;;;30.13;21.80;;;15.00;99.90;;;;;;4995697;28;20535;-63
2022/10/12 05:17:40;;;;;;;27.40;20.20;;;14.90;99.90;;;;;;5010203;28;20448;-63
2022/10/12 05:20:09;;;;;;;28.83;19.70;;;14.90;99.90;;;;;;5009617;28;20504;-64
2022/10/12 05:22:36;;;;;;;24.73;18.63;;;14.90;99.90;;;;;;5009097;28;20440;-63
2022/10/12 05:25:06;;;;;;;28.60;20.50;;;14.90;99.90;;;;;;5011555;28;20443;-63
2022/10/12 05:27:34;;;;;;;28.67;20.87;;;14.80;99.90;;;;;;5006877;28;20436;-64
2022/10/12 05:30:01;;;;;;;33.40;19.90;;;14.80;99.90;;;;;;5009108;28;20443;-63
2022/10/12 05:32:28;;;;;;;31.80;21.23;;;14.80;99.90;;;;;;5010910;28;20494;-63
2022/10/12 05:34:55;;;;;;;31.10;20.80;;;14.70;99.90;;;;;;5011323;28;20439;-63
2022/10/12 05:37:23;;;;;;;30.63;22.27;;;14.80;99.90;;;;;;5010047;28;20822;-64
2022/10/12 05:39:50;;;;;;;30.53;21.50;;;14.70;99.90;;;;;;5010948;28;20462;-63
2022/10/12 05:42:19;;;;;;;23.77;19.70;;;14.70;99.90;;;;;;5010298;28;20478;-63
2022/10/12 05:44:46;;;;;;;32.17;21.27;;;14.70;99.90;;;;;;5011272;28;20511;-64
2022/10/12 05:47:18;;;;;;;23.30;19.30;;;14.70;99.90;;;;;;5010918;28;20443;-64
2022/10/12 05:49:46;;;;;;;29.03;21.47;;;14.70;99.90;;;;;;5007062;28;20457;-63
2022/10/12 05:52:13;;;;;;;27.77;17.40;;;14.60;99.90;;;;;;5011278;28;20486;-63
2022/10/12 05:54:40;;;;;;;27.43;19.40;;;14.60;99.90;;;;;;5010311;28;20443;-64
2022/10/12 05:57:07;;;;;;;27.27;19.40;;;14.50;99.90;;;;;;5011137;28;20963;-63
2022/10/12 05:59:36;;;;;;;25.30;18.50;;;14.50;99.90;;;;;;5009457;28;20439;-63
2022/10/12 06:02:04;;;;;;;27.30;21.73;;;14.50;99.90;;;;;;5010903;28;20529;-63
2022/10/12 06:04:31;;;;;;;30.10;19.63;;;14.50;99.90;;;;;;5010121;28;20474;-63
2022/10/12 06:07:00;;;;;;;32.27;22.40;;;14.50;99.90;;;;;;5010569;28;20937;-64
2022/10/12 06:09:27;;;;;;;31.63;22.27;;;14.60;99.90;;;;;;5004568;28;20444;-64
2022/10/12 06:11:54;;;;;;;28.90;21.80;;;14.60;99.90;;;;;;5005025;28;20518;-65
2022/10/12 06:14:21;;;;;;;29.83;21.83;;;14.60;99.90;;;;;;5007536;28;20984;-64
2022/10/12 06:16:50;;;;;;;25.20;19.53;;;14.60;99.90;;;;;;5008703;28;20769;-63
2022/10/12 06:19:17;;;;;;;30.47;19.57;;;14.70;99.90;;;;;;5003183;28;20438;-65
2022/10/12 06:21:44;;;;;;;27.07;19.70;;;14.70;99.90;;;;;;5009564;28;20781;-64
2022/10/12 06:24:12;;;;;;;29.90;20.90;;;14.70;99.90;;;;;;5010306;28;20438;-64
2022/10/12 06:26:39;;;;;;;31.20;19.13;;;14.70;99.90;;;;;;5011036;28;20455;-63
2022/10/12 06:29:06;;;;;;;23.50;16.73;;;14.80;99.90;;;;;;5006553;28;20477;-64
2022/10/12 06:31:33;;;;;;;25.10;17.90;;;14.80;99.90;;;;;;5009212;28;20442;-63
2022/10/12 06:34:02;;;;;;;32.87;21.80;;;14.90;99.90;;;;;;5010291;28;20922;-63
2022/10/12 06:36:29;;;;;;;27.40;19.40;;;14.90;99.90;;;;;;5009961;28;20479;-64
2022/10/12 06:38:56;;;;;;;29.37;19.50;;;15.00;99.90;;;;;;5009428;28;20443;-63
2022/10/12 06:41:23;;;;;;;24.40;18.93;;;15.10;99.90;;;;;;5009284;28;20447;-65
2022/10/12 06:43:50;;;;;;;33.97;21.27;;;15.00;99.90;;;;;;5009634;28;20437;-63
2022/10/12 06:46:17;;;;;;;25.63;19.67;;;15.10;99.90;;;;;;5006188;28;20558;-64
2022/10/12 06:48:44;;;;;;;30.60;21.03;;;15.10;99.90;;;;;;5010753;28;20529;-64
2022/10/12 06:51:12;;;;;;;28.83;19.97;;;15.20;99.90;;;;;;5010667;28;20972;-63
2022/10/12 06:53:39;;;;;;;30.20;21.03;;;15.20;99.90;;;;;;5010876;28;20580;-63
2022/10/12 06:56:07;;;;;;;25.80;19.93;;;15.30;99.90;;;;;;5011061;28;20493;-64
2022/10/12 06:58:34;;;;;;;33.33;20.97;;;15.30;99.90;;;;;;5010576;28;20504;-65
2022/10/12 07:01:03;;;;;;;26.83;19.80;;;15.30;99.90;;;;;;5010863;28;20440;-64
2022/10/12 07:03:30;;;;;;;23.93;19.60;;;15.40;99.90;;;;;;5010794;28;20458;-64
2022/10/12 07:06:06;;;;;;;26.43;18.97;;;15.50;99.90;;;;;;5010701;28;20441;-64
2022/10/12 07:08:34;;;;;;;28.83;20.13;;;15.50;99.90;;;;;;5006886;28;20444;-64
2022/10/12 07:11:02;;;;;;;30.50;18.40;;;15.50;99.90;;;;;;5010898;28;20479;-64
2022/10/12 07:13:29;;;;;;;29.00;19.77;;;15.60;99.90;;;;;;5010621;28;20575;-64
2022/10/12 07:15:56;;;;;;;29.67;20.03;;;15.60;99.90;;;;;;5010444;28;20441;-64
2022/10/12 07:18:23;;;;;;;31.50;20.10;;;15.70;99.90;;;;;;5010752;28;20515;-64
2022/10/12 07:20:51;;;;;;;29.50;19.00;;;15.80;99.90;;;;;;5012883;28;20797;-64
2022/10/12 07:23:18;;;;;;;22.27;17.00;;;15.90;99.90;;;;;;5014042;28;20508;-65
2022/10/12 07:25:49;;;;;;;23.77;17.40;;;16.10;99.90;;;;;;5013926;28;20834;-64
2022/10/12 07:28:17;;;;;;;24.67;17.80;;;16.20;99.90;;;;;;5014222;28;21011;-64
2022/10/12 07:30:44;;;;;;;25.90;15.53;;;16.30;99.90;;;;;;5014186;28;20446;-65
2022/10/12 07:33:11;;;;;;;28.87;15.73;;;16.40;99.90;;;;;;5013449;28;21057;-64
2022/10/12 07:35:38;;;;;;;26.77;16.70;;;16.60;99.90;;;;;;5014118;28;20499;-64
2022/10/12 07:38:06;;;;;;;23.30;16.20;;;16.70;99.90;;;;;;5013669;28;20513;-64
2022/10/12 07:40:33;;;;;;;22.87;16.17;;;16.80;99.60;;;;;;5013714;28;20519;-64
2022/10/12 07:43:02;;;;;;;22.07;15.20;;;16.90;99.20;;;;;;5013228;28;20528;-64
2022/10/12 07:45:29;;;;;;;22.23;15.20;;;17.00;98.70;;;;;;5013791;28;20775;-64
2022/10/12 07:47:56;;;;;;;26.20;16.90;;;17.10;97.90;;;;;;5013635;28;20445;-65
2022/10/12 07:50:24;;;;;;;21.97;16.60;;;17.10;97.80;;;;;;5013817;28;20507;-64
2022/10/12 07:52:51;;;;;;;21.50;15.43;;;17.20;98.00;;;;;;5013394;28;20572;-64
2022/10/12 07:55:18;;;;;;;26.63;16.87;;;17.30;97.30;;;;;;5013665;28;20833;-64
2022/10/12 07:57:45;;;;;;;26.27;17.67;;;17.30;97.60;;;;;;5013606;28;20438;-65
2022/10/12 08:00:14;;;;;;;21.37;14.43;;;17.30;96.90;;;;;;5013619;28;20492;-65
2022/10/12 08:02:41;;;;;;;25.40;15.43;;;17.20;96.60;;;;;;5013297;28;20508;-64
2022/10/12 08:05:08;;;;;;;23.60;16.80;;;17.30;96.60;;;;;;5013603;28;20460;-64
2022/10/12 08:07:35;;;;;;;25.90;17.37;;;17.30;96.50;;;;;;5013297;28;20791;-64
2022/10/12 08:10:03;;;;;;;21.00;15.50;;;17.20;96.20;;;;;;5013031;28;20481;-65
2022/10/12 08:12:30;;;;;;;26.73;16.23;;;17.30;96.40;;;;;;5013058;28;20513;-64
2022/10/12 08:14:56;;;;;;;24.30;15.63;;;17.30;95.90;;;;;;5013217;28;20477;-64
2022/10/12 08:17:25;;;;;;;20.73;15.90;;;17.30;96.00;;;;;;5013136;28;20499;-63
2022/10/12 08:19:52;;;;;;;26.87;16.03;;;17.30;96.00;;;;;;5012749;28;20445;-65
2022/10/12 08:22:19;;;;;;;23.90;16.70;;;17.30;96.00;;;;;;5012922;28;20450;-66
2022/10/12 08:24:46;;;;;;;22.67;16.17;;;17.40;96.30;;;;;;5013128;28;20449;-64
2022/10/12 08:27:13;;;;;;;20.60;15.57;;;17.40;96.40;;;;;;5013210;28;20480;-64
2022/10/12 08:29:40;;;;;;;23.10;15.30;;;17.40;96.20;;;;;;5012761;28;20442;-64
2022/10/12 08:32:07;;;;;;;23.63;15.90;;;17.50;96.20;;;;;;5012205;28;20516;-64
2022/10/12 08:34:35;;;;;;;24.67;15.83;;;17.50;95.80;;;;;;5012708;28;21224;-63
2022/10/12 08:37:02;;;;;;;24.10;16.67;;;17.50;95.70;;;;;;5012406;28;20992;-63
2022/10/12 08:39:34;;;;;;;23.20;15.20;;;17.50;95.50;;;;;;5012302;28;20445;-65
2022/10/12 08:42:16;;;;;;;21.27;15.50;;;17.50;95.50;;;;;;5009152;28;20853;-63
2022/10/12 08:45:08;;;;;;;25.90;14.77;;;17.50;94.90;;;;;;5012231;28;20473;-64
2022/10/12 08:47:41;;;;;;;26.70;16.00;;;17.40;95.00;;;;;;5012132;28;20438;-63
2022/10/12 08:50:17;;;;;;;26.30;16.33;;;17.40;95.10;;;;;;5012531;28;20465;-64
2022/10/12 08:52:51;;;;;;;20.00;15.67;;;17.40;95.00;;;;;;5012477;28;20902;-65
2022/10/12 08:55:25;;;;;;;21.43;15.37;;;17.40;94.40;;;;;;5009168;28;20449;-63
2022/10/12 08:57:52;;;;;;;21.13;14.40;;;17.30;94.80;;;;;;5012380;28;20529;-63
2022/10/12 09:00:20;;;;;;;20.33;14.53;;;17.30;94.90;;;;;;5012031;28;20843;-64
2022/10/12 09:03:07;;;;;;;22.50;14.60;;;17.30;94.90;;;;;;5012388;28;20528;-63
2022/10/12 09:05:40;;;;;;;25.80;17.13;;;17.40;95.20;;;;;;5007999;28;20449;-64
2022/10/12 09:08:14;;;;;;;21.60;16.43;;;17.40;95.20;;;;;;5012201;28;20507;-63
2022/10/12 09:10:46;;;;;;;27.73;16.30;;;17.40;95.20;;;;;;5011967;28;20442;-64
2022/10/12 09:13:32;;;;;;;31.23;17.60;;;17.40;95.20;;;;;;5012144;28;20533;-65
2022/10/12 09:16:05;;;;;;;21.60;14.80;;;17.40;95.40;;;;;;5008170;28;20926;-63
2022/10/12 09:18:38;;;;;;;21.13;15.70;;;17.50;95.50;;;;;;5012055;28;20454;-63
2022/10/12 09:21:10;;;;;;;22.40;15.53;;;17.50;95.40;;;;;;5011595;28;20443;-63
2022/10/12 09:23:40;;;;;;;24.70;16.27;;;17.60;95.20;;;;;;5011993;28;20949;-63
2022/10/12 09:26:15;;;;;;;21.47;15.93;;;17.60;95.00;;;;;;5012013;28;20473;-63
2022/10/12 09:28:45;;;;;;;29.63;16.37;;;17.60;94.90;;;;;;5011807;28;20439;-63
2022/10/12 09:31:41;;;;;;;23.80;15.90;;;17.60;94.80;;;;;;5011908;28;20896;-63
2022/10/12 09:34:10;;;;;;;22.33;15.63;;;17.70;94.90;;;;;;5010479;28;20536;-64
2022/10/12 09:36:40;;;;;;;22.80;15.63;;;17.70;94.80;;;;;;5011040;28;20521;-64
2022/10/12 09:39:15;;;;;;;23.73;14.70;;;17.70;94.30;;;;;;5011649;28;20446;-63
2022/10/12 09:41:44;;;;;;;18.50;13.63;;;17.80;94.20;;;;;;5011825;28;20493;-64
2022/10/12 09:44:19;;;;;;;17.70;13.30;;;17.80;94.10;;;;;;5010659;28;20442;-63
2022/10/12 09:46:52;;;;;;;17.07;13.20;;;17.80;94.00;;;;;;5011625;28;20434;-64
2022/10/12 09:49:19;;;;;;;20.67;13.17;;;17.90;93.90;;;;;;5011345;28;20446;-63
2022/10/12 09:51:48;;;;;;;20.93;14.63;;;17.90;93.80;;;;;;5011516;28;20493;-63
2022/10/12 09:54:19;;;;;;;19.33;14.00;;;17.90;94.00;;;;;;5011593;28;20521;-64
2022/10/12 09:56:50;;;;;;;24.60;14.00;;;17.90;93.50;;;;;;5010993;28;20443;-64
2022/10/12 09:59:28;;;;;;;17.83;12.80;;;17.90;93.60;;;;;;5011334;28;20435;-64
2022/10/12 10:02:03;;;;;;;17.23;13.10;;;17.90;93.60;;;;;;5011102;28;20437;-64
2022/10/12 10:04:31;;;;;;;18.33;14.80;;;17.90;93.60;;;;;;5011231;28;20477;-63
2022/10/12 10:07:29;;;;;;;18.00;12.20;;;18.00;93.80;;;;;;5011295;28;20439;-64
2022/10/12 10:10:17;;;;;;;19.10;13.10;;;18.10;94.00;;;;;;5011423;28;20577;-64
2022/10/12 10:12:49;;;;;;;18.40;12.87;;;18.10;93.60;;;;;;5011285;28;20833;-64
2022/10/12 10:15:26;;;;;;;21.93;15.80;;;18.10;93.40;;;;;;5011196;28;20443;-64
2022/10/12 10:17:56;;;;;;;20.10;13.40;;;18.10;93.40;;;;;;5011710;28;20443;-64
2022/10/12 10:20:28;;;;;;;21.20;12.73;;;18.10;93.40;;;;;;5010836;28;20439;-64
2022/10/12 10:22:58;;;;;;;17.03;12.20;;;18.20;93.40;;;;;;5011407;28;20447;-64
2022/10/12 10:25:25;;;;;;;17.93;11.30;;;18.20;93.40;;;;;;5010631;28;20470;-64
2022/10/12 10:28:19;;;;;;;18.37;11.93;;;18.30;93.30;;;;;;5010884;28;20443;-64
2022/10/12 10:30:59;;;;;;;19.37;11.37;;;18.40;93.30;;;;;;5011141;28;20439;-64
2022/10/12 10:33:27;;;;;;;16.57;11.10;;;18.40;93.10;;;;;;5010941;28;20474;-63
2022/10/12 10:36:13;;;;;;;19.03;12.77;;;18.50;92.60;;;;;;5010800;28;20473;-64
2022/10/12 10:39:01;;;;;;;15.33;10.10;;;18.50;92.30;;;;;;5011537;28;20787;-63
2022/10/12 10:41:33;;;;;;;15.87;10.50;;;18.50;92.10;;;;;;5011455;28;20439;-64
2022/10/12 10:44:00;;;;;;;15.73;10.40;;;18.50;91.70;;;;;;5010775;28;20435;-65
2022/10/12 10:46:30;;;;;;;12.93;10.87;;;18.50;91.20;;;;;;5010935;28;20435;-64
2022/10/12 10:49:00;;;;;;;14.57;11.37;;;18.60;91.30;;;;;;5011197;28;20454;-63
2022/10/12 10:51:48;;;;;;;15.80;11.10;;;18.60;91.30;;;;;;5011005;28;20992;-66
2022/10/12 10:54:26;;;;;;;17.43;11.53;;;18.60;91.30;;;;;;5009530;28;20556;-64
2022/10/12 10:56:59;;;;;;;24.93;12.80;;;18.60;91.30;;;;;;5011471;28;20529;-64
2022/10/12 10:59:36;;;;;;;20.30;12.70;;;18.60;91.20;;;;;;5015079;28;20488;-63
2022/10/12 11:02:11;;;;;;;16.03;11.00;;;18.60;91.30;;;;;;5011119;28;20434;-63
2022/10/12 11:04:41;;;;;;;14.90;11.10;;;18.50;91.30;;;;;;5014899;28;20449;-64
2022/10/12 11:07:18;;;;;;;14.03;10.77;;;18.50;91.00;;;;;;5013262;28;21461;-63
2022/10/12 11:09:50;;;;;;;18.37;10.20;;;18.50;91.10;;;;;;5012424;28;20475;-64
2022/10/12 11:12:21;;;;;;;15.13;10.90;;;18.60;90.90;;;;;;5013780;28;20501;-64
2022/10/12 11:14:52;;;;;;;17.13;11.90;;;18.60;90.50;;;;;;5013654;28;20541;-63
2022/10/12 11:17:22;;;;;;;15.80;11.60;;;18.60;90.50;;;;;;5010061;28;20522;-64
2022/10/12 11:19:53;;;;;;;18.97;10.83;;;18.50;89.60;;;;;;5012941;28;20498;-63
2022/10/12 11:22:23;;;;;;;17.40;11.30;;;18.50;90.00;;;;;;5014720;28;20443;-64
2022/10/12 11:24:59;;;;;;;17.20;9.10;;;18.50;90.20;;;;;;5008579;28;20438;-65
2022/10/12 11:27:31;;;;;;;14.43;8.40;;;18.50;90.40;;;;;;5012948;28;20426;-63
2022/10/12 11:30:02;;;;;;;20.67;10.63;;;18.60;90.60;;;;;;5012655;28;20492;-64
2022/10/12 11:32:34;;;;;;;22.20;10.50;;;18.60;90.30;;;;;;5013838;28;20466;-64
2022/10/12 11:35:04;;;;;;;11.27;9.33;;;18.60;90.20;;;;;;5011860;28;20493;-64
2022/10/12 11:37:37;;;;;;;15.63;10.50;;;18.60;89.50;;;;;;5012862;28;20556;-64
2022/10/12 11:40:12;;;;;;;12.77;9.07;;;18.60;89.50;;;;;;5012754;28;20470;-63
2022/10/12 11:42:41;;;;;;;13.93;8.93;;;18.60;89.20;;;;;;5010020;28;20434;-63
2022/10/12 11:45:18;;;;;;;18.57;10.03;;;18.70;89.60;;;;;;5011353;28;20513;-63
2022/10/12 11:47:49;;;;;;;14.13;9.03;;;18.70;89.80;;;;;;5011919;28;20450;-64
2022/10/12 11:50:27;;;;;;;14.10;8.97;;;18.80;89.50;;;;;;5010869;28;20459;-63
2022/10/12 11:52:55;;;;;;;12.93;8.50;;;18.80;89.00;;;;;;5012511;28;20488;-64
2022/10/12 11:55:36;;;;;;;14.33;9.77;;;18.80;88.90;;;;;;5012506;28;21175;-64
2022/10/12 11:58:08;;;;;;;15.63;8.90;;;18.90;87.90;;;;;;5012183;28;20450;-64
2022/10/12 12:00:45;;;;;;;15.40;9.30;;;18.90;87.60;;;;;;5012150;28;20447;-64
2022/10/12 12:03:20;;;;;;;11.90;8.80;;;18.90;86.30;;;;;;5009641;28;20438;-64
2022/10/12 12:05:47;;;;;;;16.00;9.70;;;18.90;86.40;;;;;;5012213;28;20445;-65
2022/10/12 12:08:43;;;;;;;13.70;8.47;;;19.00;87.10;;;;;;5010929;28;20485;-64
2022/10/12 12:11:24;;;;;;;11.57;7.67;;;19.00;87.20;;;;;;5012397;28;20446;-64
2022/10/12 12:13:51;;;;;;;10.90;8.20;;;19.10;86.50;;;;;;5012105;28;20869;-64
2022/10/12 12:16:31;;;;;;;16.87;8.40;;;19.20;86.40;;;;;;5009352;28;20502;-64
2022/10/12 12:19:40;;;;;;;17.43;9.90;;;19.30;86.90;;;;;;5009400;28;20445;-63
2022/10/12 12:22:27;;;;;;;13.47;8.97;;;19.40;86.70;;;;;;5007810;28;20448;-64
2022/10/12 12:25:15;;;;;;;15.37;8.60;;;19.60;85.30;;;;;;5011365;28;20451;-64
2022/10/12 12:27:47;;;;;;;11.37;8.30;;;19.70;84.70;;;;;;5011378;28;21012;-64
2022/10/12 12:30:31;;;;;;;11.03;7.50;;;19.70;84.10;;;;;;5013254;28;20528;-65
2022/10/12 12:33:01;;;;;;;15.07;8.43;;;19.80;83.30;;;;;;5013146;28;20929;-64
2022/10/12 12:35:32;;;;;;;17.10;9.77;;;19.90;82.60;;;;;;5013087;28;20496;-63
2022/10/12 12:38:24;;;;;;;11.73;7.77;;;19.90;81.50;;;;;;5012898;28;20841;-64
2022/10/12 12:41:17;;;;;;;11.67;7.40;;;20.00;82.00;;;;;;5011100;28;20505;-64
2022/10/12 12:44:04;;;;;;;15.40;7.50;;;20.00;80.70;;;;;;5013190;28;20434;-64
2022/10/12 12:47:08;;;;;;;15.30;8.87;;;19.90;81.50;;;;;;5011002;28;20438;-63